Norman Wells, Canada
Current Conditions -  °F | °C
As of 4:00 PM on Friday 28 Nov 2014 (Local Time) from CYVQ Reporting Station
Ice Pellets Ice Pellets  
Wind Chill: -38°   Ceiling: Unl
Heat Index: -18°   Visibility: 30mi
Dew Point: -24°   Wind: 9mph
Humidity: 76%   Direction: 280°W
Pressure: 30.04"   Gusts: NA
Location:  65.28°N, 126.83°W
Report Text: CYVQ 282300Z 28008KT 30SM IC FEW090 FEW250 M28/M31 A3004 RMK AC1CI1 AC TR SLP185
Loading
Personal Weather Stations






























Interactive Weather Map New forecast layout! Learn more

10-Day Weather Forecast

Advertisements
Track Severe Weather on mobile